Time;durP1;ratioP1;P1;durP2;ratioP2;P2;SDS_P1;SDS_P2;PMS_P1;PMS_P2;Temp;Humidity;BMP_temperature;BMP_pressure;BME280_temperature;BME280_humidity;BME280_pressure;Samples;Min_cycle;Max_cycle;Signal;HPM_P1;HPM_P2
2023/07/27 00:00:26;;;;;;;6.38;5.57;;;;;;;;;;5071172;28;20024;-69
2023/07/27 00:02:51;;;;;;;8.80;5.80;;;;;;;;;;5070672;28;20090;-69
2023/07/27 00:05:16;;;;;;;7.93;6.43;;;;;;;;;;5072169;28;20024;-69
2023/07/27 00:07:42;;;;;;;6.27;5.30;;;;;;;;;;5071025;28;20559;-69
2023/07/27 00:10:07;;;;;;;10.45;5.38;;;;;;;;;;5071614;28;20021;-69
2023/07/27 00:12:32;;;;;;;13.67;4.90;;;;;;;;;;5057247;28;20080;-69
2023/07/27 00:14:57;;;;;;;7.93;4.67;;;;;;;;;;5052261;28;21011;-68
2023/07/27 00:17:22;;;;;;;13.07;5.97;;;;;;;;;;5063241;28;20481;-68
2023/07/27 00:19:47;;;;;;;7.93;6.07;;;;;;;;;;5072224;28;20013;-69
2023/07/27 00:22:13;;;;;;;11.13;5.43;;;;;;;;;;5070425;28;20040;-68
2023/07/27 00:24:38;;;;;;;7.43;6.50;;;;;;;;;;5072208;28;20099;-68
2023/07/27 00:27:03;;;;;;;9.40;5.77;;;;;;;;;;5070145;28;20032;-67
2023/07/27 00:29:29;;;;;;;5.45;4.75;;;;;;;;;;5072372;28;20124;-68
2023/07/27 00:31:54;;;;;;;6.07;5.25;;;;;;;;;;5069488;28;20041;-67
2023/07/27 00:34:19;;;;;;;8.53;4.97;;;;;;;;;;5071442;28;20021;-68
2023/07/27 00:36:44;;;;;;;5.67;4.90;;;;;;;;;;5069973;28;20834;-68
2023/07/27 00:39:11;;;;;;;6.88;6.13;;;;;;;;;;5071496;28;20017;-68
2023/07/27 00:41:36;;;;;;;5.75;4.70;;;;;;;;;;5070411;28;20394;-67
2023/07/27 00:44:01;;;;;;;7.35;5.07;;;;;;;;;;5071843;28;20017;-68
2023/07/27 00:46:26;;;;;;;8.63;5.60;;;;;;;;;;5069848;28;20036;-67
2023/07/27 00:48:51;;;;;;;7.60;6.15;;;;;;;;;;5071269;28;20421;-68
2023/07/27 00:51:17;;;;;;;6.53;5.90;;;;;;;;;;5069637;28;20029;-68
2023/07/27 00:53:42;;;;;;;10.38;6.45;;;;;;;;;;5071682;28;20525;-68
2023/07/27 00:56:08;;;;;;;6.95;5.20;;;;;;;;;;5069762;28;20489;-67
2023/07/27 00:58:33;;;;;;;7.10;6.00;;;;;;;;;;5071556;28;20100;-68
2023/07/27 01:01:02;;;;;;;7.80;6.40;;;;;;;;;;5070025;28;20020;-66
2023/07/27 01:03:28;;;;;;;6.75;6.07;;;;;;;;;;5071611;28;20461;-67
2023/07/27 01:05:53;;;;;;;7.53;6.38;;;;;;;;;;5069593;28;20356;-66
2023/07/27 01:08:19;;;;;;;6.70;5.95;;;;;;;;;;5071135;28;20022;-67
2023/07/27 01:10:50;;;;;;;9.45;6.45;;;;;;;;;;5070880;28;20021;-67
2023/07/27 01:13:28;;;;;;;7.65;6.43;;;;;;;;;;5069370;28;20127;-67
2023/07/27 01:15:58;;;;;;;10.30;7.75;;;;;;;;;;5069266;28;20024;-66
2023/07/27 01:18:27;;;;;;;9.30;6.25;;;;;;;;;;5070505;28;20109;-68
2023/07/27 01:21:04;;;;;;;10.60;6.65;;;;;;;;;;5069684;28;20375;-66
2023/07/27 01:23:48;;;;;;;7.20;6.50;;;;;;;;;;5071546;28;20035;-68
2023/07/27 01:26:32;;;;;;;8.73;7.38;;;;;;;;;;5069018;28;20050;-68
2023/07/27 01:29:15;;;;;;;11.82;5.53;;;;;;;;;;5071025;28;20024;-68
2023/07/27 01:31:42;;;;;;;8.27;5.90;;;;;;;;;;5068838;28;20040;-68
2023/07/27 01:34:14;;;;;;;7.07;5.45;;;;;;;;;;5069944;28;20499;-68
2023/07/27 01:36:40;;;;;;;12.40;8.52;;;;;;;;;;5069259;28;20044;-68
2023/07/27 01:39:09;;;;;;;10.65;7.25;;;;;;;;;;5070194;28;20028;-68
2023/07/27 01:41:36;;;;;;;10.18;7.97;;;;;;;;;;5069369;28;20036;-68
2023/07/27 01:44:02;;;;;;;7.78;6.82;;;;;;;;;;5070796;28;20538;-69
2023/07/27 01:46:30;;;;;;;9.57;6.20;;;;;;;;;;5068523;28;20049;-68
2023/07/27 01:48:56;;;;;;;8.68;6.97;;;;;;;;;;5070765;28;20049;-68
2023/07/27 01:51:21;;;;;;;10.63;7.95;;;;;;;;;;5069081;28;20570;-68
2023/07/27 01:53:47;;;;;;;10.88;7.68;;;;;;;;;;5070456;28;20364;-69
2023/07/27 01:56:13;;;;;;;9.73;7.65;;;;;;;;;;5068908;28;20025;-69
2023/07/27 01:58:39;;;;;;;11.45;6.95;;;;;;;;;;5070902;28;20387;-69
2023/07/27 02:01:04;;;;;;;15.10;7.07;;;;;;;;;;5068658;28;20029;-68
2023/07/27 02:03:30;;;;;;;12.00;8.13;;;;;;;;;;5070887;28;20021;-68
2023/07/27 02:05:56;;;;;;;9.63;7.63;;;;;;;;;;5069217;28;20083;-67
2023/07/27 02:08:22;;;;;;;8.43;7.43;;;;;;;;;;5070047;28;20051;-68
2023/07/27 02:10:50;;;;;;;7.68;6.88;;;;;;;;;;5070276;28;20091;-68
2023/07/27 02:13:21;;;;;;;7.35;6.50;;;;;;;;;;5068833;28;20036;-68
2023/07/27 02:16:06;;;;;;;11.77;8.52;;;;;;;;;;5070312;28;20378;-68
2023/07/27 02:18:33;;;;;;;8.85;7.38;;;;;;;;;;5067519;28;20035;-68
2023/07/27 02:20:59;;;;;;;8.98;7.05;;;;;;;;;;5069282;28;20379;-68
2023/07/27 02:23:24;;;;;;;10.02;9.05;;;;;;;;;;5069970;28;20020;-69
2023/07/27 02:25:50;;;;;;;14.32;7.85;;;;;;;;;;5070732;28;20573;-69
2023/07/27 02:28:15;;;;;;;11.40;7.57;;;;;;;;;;5068262;28;20605;-69
2023/07/27 02:30:40;;;;;;;10.47;8.87;;;;;;;;;;5068556;28;20034;-69
2023/07/27 02:33:05;;;;;;;14.50;8.18;;;;;;;;;;5068457;28;20036;-69
2023/07/27 02:35:30;;;;;;;10.95;8.82;;;;;;;;;;5070269;28;20130;-69
2023/07/27 02:37:55;;;;;;;15.00;9.88;;;;;;;;;;5068522;28;20036;-70
2023/07/27 02:40:21;;;;;;;15.18;10.38;;;;;;;;;;5069815;28;20459;-70
2023/07/27 02:42:46;;;;;;;11.60;9.00;;;;;;;;;;5068930;28;20037;-69
2023/07/27 02:45:11;;;;;;;11.05;8.75;;;;;;;;;;5071935;28;20020;-69
2023/07/27 02:47:36;;;;;;;9.98;8.93;;;;;;;;;;5071760;28;20032;-70
2023/07/27 02:50:01;;;;;;;12.43;9.67;;;;;;;;;;5074035;28;20081;-70
2023/07/27 02:52:26;;;;;;;11.30;9.67;;;;;;;;;;5072251;28;20478;-70
2023/07/27 02:54:52;;;;;;;10.82;9.73;;;;;;;;;;5073604;28;20490;-70
2023/07/27 02:57:17;;;;;;;10.27;8.45;;;;;;;;;;5072203;28;20032;-70
2023/07/27 02:59:42;;;;;;;52.53;9.70;;;;;;;;;;5073736;28;20012;-70
2023/07/27 03:02:07;;;;;;;12.90;11.32;;;;;;;;;;5071817;28;20037;-70
2023/07/27 03:04:33;;;;;;;14.43;9.03;;;;;;;;;;5073932;28;20024;-70
2023/07/27 03:06:58;;;;;;;17.95;11.68;;;;;;;;;;5071706;28;20044;-70
2023/07/27 03:09:23;;;;;;;11.03;9.93;;;;;;;;;;5071656;28;20078;-69
2023/07/27 03:11:49;;;;;;;13.52;11.13;;;;;;;;;;5072160;28;20061;-70
2023/07/27 03:14:14;;;;;;;18.67;12.25;;;;;;;;;;5073103;28;20410;-70
2023/07/27 03:16:40;;;;;;;15.68;10.80;;;;;;;;;;5071734;28;20094;-70
2023/07/27 03:19:05;;;;;;;27.15;13.68;;;;;;;;;;5073385;28;20039;-70
2023/07/27 03:21:30;;;;;;;16.33;13.25;;;;;;;;;;5072001;28;20090;-70
2023/07/27 03:23:55;;;;;;;18.47;13.73;;;;;;;;;;5073427;28;20031;-70
2023/07/27 03:26:20;;;;;;;25.33;15.47;;;;;;;;;;5071413;28;20097;-70
2023/07/27 03:28:45;;;;;;;21.90;16.03;;;;;;;;;;5072772;28;20039;-70
2023/07/27 03:31:14;;;;;;;25.10;14.27;;;;;;;;;;5071178;28;20048;-69
2023/07/27 03:33:39;;;;;;;19.13;15.40;;;;;;;;;;5072762;28;20473;-69
2023/07/27 03:36:05;;;;;;;21.33;14.50;;;;;;;;;;5071211;28;20373;-68
2023/07/27 03:38:32;;;;;;;18.97;13.43;;;;;;;;;;5072794;28;20038;-69
2023/07/27 03:40:57;;;;;;;20.27;15.85;;;;;;;;;;5071779;28;20037;-69
2023/07/27 03:43:22;;;;;;;25.58;17.92;;;;;;;;;;5072905;28;20113;-70
2023/07/27 03:45:47;;;;;;;20.80;14.80;;;;;;;;;;5071349;28;20038;-70
2023/07/27 03:48:12;;;;;;;19.10;16.23;;;;;;;;;;5071247;28;20066;-70
2023/07/27 03:50:37;;;;;;;21.42;18.17;;;;;;;;;;5071250;28;20429;-69
2023/07/27 03:53:02;;;;;;;24.17;16.40;;;;;;;;;;5070402;28;20549;-69
2023/07/27 03:55:29;;;;;;;20.43;14.27;;;;;;;;;;5072920;28;20024;-70
2023/07/27 03:57:54;;;;;;;30.75;17.75;;;;;;;;;;5070457;28;20483;-70
2023/07/27 04:00:19;;;;;;;30.60;18.03;;;;;;;;;;5072163;28;20024;-69
2023/07/27 04:02:44;;;;;;;19.77;16.63;;;;;;;;;;5071171;28;20056;-69
2023/07/27 04:05:10;;;;;;;23.60;17.90;;;;;;;;;;5053510;28;20861;-68
2023/07/27 04:07:35;;;;;;;20.38;15.43;;;;;;;;;;5065176;28;20041;-68
2023/07/27 04:10:00;;;;;;;24.77;16.63;;;;;;;;;;5072408;28;20024;-68
2023/07/27 04:12:25;;;;;;;26.10;16.87;;;;;;;;;;5070133;28;20028;-68
2023/07/27 04:14:51;;;;;;;25.07;17.30;;;;;;;;;;5071110;28;21016;-68
2023/07/27 04:17:16;;;;;;;26.73;19.40;;;;;;;;;;5068778;28;20458;-71
2023/07/27 04:19:41;;;;;;;22.40;15.68;;;;;;;;;;5071698;28;20023;-70
2023/07/27 04:22:06;;;;;;;22.50;17.00;;;;;;;;;;5070100;28;20121;-70
2023/07/27 04:24:31;;;;;;;24.90;17.83;;;;;;;;;;5072174;28;20021;-70
2023/07/27 04:26:56;;;;;;;32.13;17.73;;;;;;;;;;5070274;28;20032;-69
2023/07/27 04:29:22;;;;;;;27.93;17.00;;;;;;;;;;5071585;28;20023;-73
2023/07/27 04:31:47;;;;;;;23.37;17.20;;;;;;;;;;5070696;28;20139;-69
2023/07/27 04:34:12;;;;;;;27.43;16.80;;;;;;;;;;5071104;28;20031;-69
2023/07/27 04:36:37;;;;;;;30.08;20.45;;;;;;;;;;5069301;28;20446;-69
2023/07/27 04:39:02;;;;;;;27.27;16.90;;;;;;;;;;5071512;28;20024;-69
2023/07/27 04:41:27;;;;;;;26.10;18.47;;;;;;;;;;5070540;28;20067;-69
2023/07/27 04:43:53;;;;;;;24.60;16.10;;;;;;;;;;5071474;28;20465;-69
2023/07/27 04:46:18;;;;;;;22.85;15.95;;;;;;;;;;5070125;28;20032;-70
2023/07/27 04:48:43;;;;;;;29.30;15.23;;;;;;;;;;5071859;28;20024;-69
2023/07/27 04:51:08;;;;;;;24.92;16.42;;;;;;;;;;5068603;28;20025;-69
2023/07/27 04:53:33;;;;;;;23.17;16.50;;;;;;;;;;5070932;28;20024;-69
2023/07/27 04:55:58;;;;;;;23.40;16.88;;;;;;;;;;5070334;28;20415;-68
2023/07/27 04:58:23;;;;;;;23.00;17.00;;;;;;;;;;5054352;28;20391;-69
2023/07/27 05:00:55;;;;;;;24.88;17.25;;;;;;;;;;5049728;28;20104;-70
2023/07/27 05:03:20;;;;;;;31.17;17.25;;;;;;;;;;5057608;28;20036;-70
2023/07/27 05:05:46;;;;;;;27.50;17.45;;;;;;;;;;5059001;28;20028;-69
2023/07/27 05:08:11;;;;;;;22.27;14.25;;;;;;;;;;5055456;28;20033;-69
2023/07/27 05:10:38;;;;;;;22.77;16.00;;;;;;;;;;5058169;28;20547;-69
2023/07/27 05:13:03;;;;;;;24.73;15.02;;;;;;;;;;5056285;28;20178;-69
2023/07/27 05:15:28;;;;;;;26.20;16.58;;;;;;;;;;5060177;28;20107;-70
2023/07/27 05:17:53;;;;;;;22.35;15.75;;;;;;;;;;5057036;28;20033;-70
2023/07/27 05:20:19;;;;;;;27.35;17.52;;;;;;;;;;5057431;28;20021;-69
2023/07/27 05:22:44;;;;;;;25.30;15.30;;;;;;;;;;5055564;28;20044;-70
2023/07/27 05:25:10;;;;;;;19.83;16.93;;;;;;;;;;5057656;28;20032;-71
2023/07/27 05:27:35;;;;;;;17.38;13.60;;;;;;;;;;5056791;28;20041;-70
2023/07/27 05:30:00;;;;;;;27.50;14.93;;;;;;;;;;5061268;28;20020;-70
2023/07/27 05:32:26;;;;;;;22.67;13.15;;;;;;;;;;5068950;28;20028;-69
2023/07/27 05:34:51;;;;;;;19.38;14.13;;;;;;;;;;5070500;28;20020;-69
2023/07/27 05:37:16;;;;;;;20.30;13.07;;;;;;;;;;5065840;28;20068;-69
2023/07/27 05:39:41;;;;;;;16.83;14.43;;;;;;;;;;5065924;28;20020;-70
2023/07/27 05:42:06;;;;;;;15.88;11.75;;;;;;;;;;5068332;28;20036;-69
2023/07/27 05:44:31;;;;;;;17.23;11.90;;;;;;;;;;5057167;28;20017;-69
2023/07/27 05:46:57;;;;;;;20.02;12.73;;;;;;;;;;5049055;28;20029;-70
2023/07/27 05:49:22;;;;;;;15.17;11.80;;;;;;;;;;5049330;28;20025;-72
2023/07/27 05:51:47;;;;;;;16.30;13.10;;;;;;;;;;5048627;28;20041;-70
2023/07/27 05:54:12;;;;;;;19.85;13.25;;;;;;;;;;5070570;28;20024;-69
2023/07/27 05:56:37;;;;;;;17.80;12.53;;;;;;;;;;5056733;28;20037;-70
2023/07/27 05:59:02;;;;;;;17.47;12.40;;;;;;;;;;5049985;28;20388;-70
2023/07/27 06:01:27;;;;;;;19.67;13.17;;;;;;;;;;5049364;28;20124;-70
2023/07/27 06:03:53;;;;;;;20.03;13.83;;;;;;;;;;5050766;28;20016;-69
2023/07/27 06:06:18;;;;;;;15.13;13.47;;;;;;;;;;5048510;28;20802;-70
2023/07/27 06:08:43;;;;;;;17.27;14.48;;;;;;;;;;5050704;28;20029;-69
2023/07/27 06:11:09;;;;;;;19.27;16.13;;;;;;;;;;5049036;28;20025;-69
2023/07/27 06:13:34;;;;;;;19.23;13.20;;;;;;;;;;5050201;28;20055;-69
2023/07/27 06:16:00;;;;;;;22.55;15.55;;;;;;;;;;5049124;28;20526;-70
2023/07/27 06:18:25;;;;;;;19.05;14.68;;;;;;;;;;5050623;28;20131;-70
2023/07/27 06:20:50;;;;;;;19.40;16.20;;;;;;;;;;5053251;28;20096;-70
2023/07/27 06:23:15;;;;;;;21.55;15.73;;;;;;;;;;5052497;28;20037;-70
2023/07/27 06:25:42;;;;;;;21.40;17.87;;;;;;;;;;5054436;28;20020;-70
2023/07/27 06:28:07;;;;;;;22.90;16.52;;;;;;;;;;5052355;28;20480;-70
2023/07/27 06:30:34;;;;;;;22.23;18.87;;;;;;;;;;5054371;28;20057;-70
2023/07/27 06:32:59;;;;;;;22.92;17.25;;;;;;;;;;5052518;28;20482;-70
2023/07/27 06:35:24;;;;;;;18.40;16.23;;;;;;;;;;5053372;28;20057;-70
2023/07/27 06:37:50;;;;;;;20.60;17.63;;;;;;;;;;5069134;28;20052;-70
2023/07/27 06:40:15;;;;;;;26.27;17.30;;;;;;;;;;5073771;28;20012;-70
2023/07/27 06:42:40;;;;;;;17.60;15.18;;;;;;;;;;5072334;28;20032;-70
2023/07/27 06:45:05;;;;;;;16.77;14.07;;;;;;;;;;5072495;28;20472;-70
2023/07/27 06:47:30;;;;;;;18.45;13.68;;;;;;;;;;5072694;28;20036;-69
2023/07/27 06:49:57;;;;;;;13.00;11.63;;;;;;;;;;5073528;28;20021;-70
2023/07/27 06:52:22;;;;;;;12.60;11.00;;;;;;;;;;5071886;28;20040;-69
2023/07/27 06:54:47;;;;;;;16.20;12.23;;;;;;;;;;5073995;28;20020;-70
2023/07/27 06:57:12;;;;;;;13.68;11.95;;;;;;;;;;5071878;28;20576;-70
2023/07/27 06:59:37;;;;;;;14.97;13.47;;;;;;;;;;5073915;28;20017;-70
2023/07/27 07:02:03;;;;;;;14.80;9.60;;;;;;;;;;5070738;28;20470;-70
2023/07/27 07:04:31;;;;;;;10.93;9.82;;;;;;;;;;5073372;28;20041;-70
2023/07/27 07:06:56;;;;;;;12.15;10.57;;;;;;;;;;5072365;28;20032;-70
2023/07/27 07:09:21;;;;;;;9.65;8.65;;;;;;;;;;5073357;28;20155;-70
2023/07/27 07:11:47;;;;;;;13.77;8.70;;;;;;;;;;5072004;28;20067;-70
2023/07/27 07:14:13;;;;;;;9.90;8.88;;;;;;;;;;5072850;28;20558;-70
2023/07/27 07:16:38;;;;;;;10.50;9.00;;;;;;;;;;5072023;28;20120;-70
2023/07/27 07:19:03;;;;;;;11.10;8.87;;;;;;;;;;5073156;28;20017;-70
2023/07/27 07:21:28;;;;;;;11.70;8.77;;;;;;;;;;5071707;28;20801;-70
2023/07/27 07:23:53;;;;;;;10.20;8.55;;;;;;;;;;5073386;28;20025;-70
2023/07/27 07:26:19;;;;;;;11.23;8.77;;;;;;;;;;5071125;28;20635;-70
2023/07/27 07:28:44;;;;;;;9.60;8.65;;;;;;;;;;5070274;28;20066;-70
2023/07/27 07:31:09;;;;;;;9.80;8.93;;;;;;;;;;5069462;28;20500;-70
2023/07/27 07:33:34;;;;;;;11.38;9.00;;;;;;;;;;5073093;28;20020;-70
2023/07/27 07:36:00;;;;;;;10.45;8.15;;;;;;;;;;5052176;28;20061;-70
2023/07/27 07:38:25;;;;;;;10.73;8.67;;;;;;;;;;5052817;28;20009;-70
2023/07/27 07:40:50;;;;;;;14.77;10.25;;;;;;;;;;5053013;28;20505;-70
2023/07/27 07:43:15;;;;;;;9.77;8.75;;;;;;;;;;5050916;28;20029;-70
2023/07/27 07:45:40;;;;;;;10.80;9.03;;;;;;;;;;5053138;28;20021;-71
2023/07/27 07:48:05;;;;;;;7.93;7.07;;;;;;;;;;5069417;28;20617;-70
2023/07/27 07:50:36;;;;;;;10.30;9.30;;;;;;;;;;5068879;28;20035;-71
2023/07/27 07:53:01;;;;;;;8.27;7.47;;;;;;;;;;5052974;28;20136;-70
2023/07/27 07:55:27;;;;;;;10.50;7.23;;;;;;;;;;5052683;28;20535;-70
2023/07/27 07:57:52;;;;;;;7.78;7.07;;;;;;;;;;5051157;28;20048;-70
2023/07/27 08:00:17;;;;;;;7.93;6.32;;;;;;;;;;5052239;28;20040;-70
2023/07/27 08:02:43;;;;;;;7.68;6.80;;;;;;;;;;5051181;28;20114;-70
2023/07/27 08:05:08;;;;;;;6.47;5.03;;;;;;;;;;5052081;28;20021;-70
2023/07/27 08:07:33;;;;;;;11.05;6.90;;;;;;;;;;5051348;28;20451;-71
2023/07/27 08:10:01;;;;;;;6.40;5.90;;;;;;;;;;5052875;28;20048;-70
2023/07/27 08:12:27;;;;;;;7.05;6.35;;;;;;;;;;5050284;28;20135;-70
2023/07/27 08:14:52;;;;;;;5.90;5.03;;;;;;;;;;5052529;28;20096;-70
2023/07/27 08:17:17;;;;;;;6.40;5.80;;;;;;;;;;5050896;28;20492;-69
2023/07/27 08:19:42;;;;;;;6.93;6.30;;;;;;;;;;5052220;28;20104;-69
2023/07/27 08:22:07;;;;;;;6.77;6.13;;;;;;;;;;5050807;28;20041;-69
2023/07/27 08:24:32;;;;;;;5.57;5.13;;;;;;;;;;5052329;28;20423;-70
2023/07/27 08:26:59;;;;;;;5.65;4.80;;;;;;;;;;5050495;28;20053;-69
2023/07/27 08:29:24;;;;;;;5.20;4.72;;;;;;;;;;5052307;28;20447;-69
2023/07/27 08:31:49;;;;;;;4.90;4.50;;;;;;;;;;5050398;28;20057;-69
2023/07/27 08:34:14;;;;;;;5.85;5.32;;;;;;;;;;5051382;28;20094;-69
2023/07/27 08:36:39;;;;;;;4.30;4.00;;;;;;;;;;5050537;28;20055;-69
2023/07/27 08:39:04;;;;;;;4.00;3.57;;;;;;;;;;5051701;28;20032;-69
2023/07/27 08:41:30;;;;;;;7.03;4.50;;;;;;;;;;5050268;28;20071;-71
2023/07/27 08:43:55;;;;;;;5.35;4.85;;;;;;;;;;5052036;28;20047;-69
2023/07/27 08:46:21;;;;;;;4.57;4.18;;;;;;;;;;5048841;28;20040;-69
2023/07/27 08:48:48;;;;;;;5.05;4.60;;;;;;;;;;5051457;28;20016;-68
2023/07/27 08:51:14;;;;;;;5.22;3.88;;;;;;;;;;5050100;28;20075;-69
2023/07/27 08:53:39;;;;;;;4.03;3.73;;;;;;;;;;5051582;28;20045;-69
2023/07/27 08:56:04;;;;;;;4.18;3.78;;;;;;;;;;5049860;28;20550;-69
2023/07/27 08:58:30;;;;;;;4.65;4.25;;;;;;;;;;5051751;28;20016;-69
2023/07/27 09:00:55;;;;;;;3.72;3.42;;;;;;;;;;5044617;28;20020;-67
2023/07/27 09:03:20;;;;;;;4.43;4.03;;;;;;;;;;5049797;28;20028;-69
2023/07/27 09:05:55;;;;;;;4.30;2.93;;;;;;;;;;5051593;28;20024;-69
2023/07/27 09:08:20;;;;;;;5.93;3.15;;;;;;;;;;5069959;28;20443;-68
2023/07/27 09:10:46;;;;;;;4.70;4.30;;;;;;;;;;5071058;28;20103;-69
2023/07/27 09:13:11;;;;;;;2.50;2.30;;;;;;;;;;5069421;28;20124;-69
2023/07/27 09:15:40;;;;;;;3.33;3.03;;;;;;;;;;5071226;28;20457;-68
2023/07/27 09:18:11;;;;;;;4.53;3.00;;;;;;;;;;5069318;28;20810;-68
2023/07/27 09:20:36;;;;;;;4.43;2.92;;;;;;;;;;5071229;28;20418;-69
2023/07/27 09:23:01;;;;;;;3.70;2.23;;;;;;;;;;5069803;28;20123;-67
2023/07/27 09:25:26;;;;;;;4.33;2.73;;;;;;;;;;5070536;28;20021;-67
2023/07/27 09:27:53;;;;;;;5.87;3.00;;;;;;;;;;5069360;28;20473;-68
2023/07/27 09:30:19;;;;;;;3.55;3.35;;;;;;;;;;5071109;28;20062;-68
2023/07/27 09:32:45;;;;;;;3.55;2.88;;;;;;;;;;5069095;28;20036;-68
2023/07/27 09:35:16;;;;;;;4.70;2.67;;;;;;;;;;5070721;28;20028;-67
2023/07/27 09:37:42;;;;;;;3.33;3.03;;;;;;;;;;5068716;28;20044;-68
2023/07/27 09:40:08;;;;;;;6.97;3.58;;;;;;;;;;5070542;28;20075;-69
2023/07/27 09:42:34;;;;;;;4.53;3.13;;;;;;;;;;5069535;28;20059;-69
2023/07/27 09:44:59;;;;;;;3.57;3.27;;;;;;;;;;5070837;28;20008;-69
2023/07/27 09:47:29;;;;;;;3.17;2.63;;;;;;;;;;5068933;28;20039;-69
2023/07/27 09:49:57;;;;;;;2.83;2.63;;;;;;;;;;5071196;28;20421;-69
2023/07/27 09:52:23;;;;;;;5.22;3.67;;;;;;;;;;5068913;28;20089;-68
2023/07/27 09:54:49;;;;;;;4.15;2.85;;;;;;;;;;5069878;28;20148;-69
2023/07/27 09:57:14;;;;;;;5.63;3.42;;;;;;;;;;5069125;28;20043;-69
2023/07/27 09:59:40;;;;;;;4.80;3.30;;;;;;;;;;5070813;28;20393;-69
2023/07/27 10:02:06;;;;;;;3.90;3.60;;;;;;;;;;5068708;28;20124;-68
2023/07/27 10:04:31;;;;;;;6.20;3.53;;;;;;;;;;5070667;28;20466;-68
2023/07/27 10:06:56;;;;;;;3.40;3.20;;;;;;;;;;5069092;28;20037;-68
2023/07/27 10:09:22;;;;;;;4.33;2.90;;;;;;;;;;5070514;28;20101;-68
2023/07/27 10:11:57;;;;;;;3.30;3.10;;;;;;;;;;5067630;28;20041;-68
2023/07/27 10:14:26;;;;;;;3.58;3.28;;;;;;;;;;5069573;28;20019;-69
2023/07/27 10:16:58;;;;;;;3.10;2.90;;;;;;;;;;5068052;28;20071;-68
2023/07/27 10:19:24;;;;;;;5.63;3.78;;;;;;;;;;5070782;28;20024;-68
2023/07/27 10:21:51;;;;;;;3.40;3.10;;;;;;;;;;5069098;28;20032;-68
2023/07/27 10:24:21;;;;;;;6.30;5.07;;;;;;;;;;5070258;28;20032;-69
2023/07/27 10:26:52;;;;;;;6.15;3.80;;;;;;;;;;5068182;28;20119;-68
2023/07/27 10:29:26;;;;;;;7.72;4.95;;;;;;;;;;5038809;28;20035;-68
2023/07/27 10:32:01;;;;;;;4.40;4.07;;;;;;;;;;5044955;28;20454;-69
2023/07/27 10:34:27;;;;;;;4.60;4.20;;;;;;;;;;5036595;28;20036;-68
2023/07/27 10:36:58;;;;;;;4.57;4.15;;;;;;;;;;5056638;28;20049;-69
2023/07/27 10:39:25;;;;;;;5.80;4.13;;;;;;;;;;5069594;28;20123;-69
2023/07/27 10:42:12;;;;;;;6.07;4.93;;;;;;;;;;5068529;28;20395;-69
2023/07/27 10:44:41;;;;;;;4.97;4.50;;;;;;;;;;5069708;28;20025;-68
2023/07/27 10:47:06;;;;;;;4.70;4.30;;;;;;;;;;5068358;28;20043;-68
2023/07/27 10:49:37;;;;;;;4.65;4.25;;;;;;;;;;5070123;28;20025;-68
2023/07/27 10:52:02;;;;;;;5.60;5.10;;;;;;;;;;5068748;28;20056;-68
2023/07/27 10:54:27;;;;;;;5.33;4.83;;;;;;;;;;5069732;28;20064;-68
2023/07/27 10:56:52;;;;;;;5.93;5.33;;;;;;;;;;5068654;28;20439;-68
2023/07/27 10:59:18;;;;;;;6.32;5.82;;;;;;;;;;5068802;28;20484;-68
2023/07/27 11:01:46;;;;;;;8.32;4.63;;;;;;;;;;5068348;28;20029;-68
2023/07/27 11:04:13;;;;;;;4.50;4.20;;;;;;;;;;5070175;28;20016;-68
2023/07/27 11:06:45;;;;;;;5.80;5.20;;;;;;;;;;5070054;28;20222;-68
2023/07/27 11:09:11;;;;;;;5.22;4.82;;;;;;;;;;5071712;28;20017;-68
2023/07/27 11:11:37;;;;;;;5.53;5.00;;;;;;;;;;5072176;28;20089;-70
2023/07/27 11:14:05;;;;;;;7.67;6.33;;;;;;;;;;5073267;28;20028;-69
2023/07/27 11:16:31;;;;;;;8.65;7.85;;;;;;;;;;5071719;28;20469;-70
2023/07/27 11:18:57;;;;;;;5.63;5.18;;;;;;;;;;5072346;28;20051;-70
2023/07/27 11:21:22;;;;;;;7.72;5.22;;;;;;;;;;5072016;28;20036;-70
2023/07/27 11:23:47;;;;;;;6.33;5.73;;;;;;;;;;5073028;28;20176;-70
2023/07/27 11:26:13;;;;;;;7.43;6.72;;;;;;;;;;5071661;28;20448;-70
2023/07/27 11:28:41;;;;;;;6.95;6.10;;;;;;;;;;5073317;28;20020;-69
2023/07/27 11:31:07;;;;;;;6.07;5.47;;;;;;;;;;5069930;28;20399;-69
2023/07/27 11:33:35;;;;;;;5.03;4.63;;;;;;;;;;5073166;28;20021;-69
2023/07/27 11:36:00;;;;;;;7.13;5.57;;;;;;;;;;5071736;28;20086;-69
2023/07/27 11:38:26;;;;;;;6.60;6.00;;;;;;;;;;5071290;28;20057;-70
2023/07/27 11:40:53;;;;;;;9.32;7.20;;;;;;;;;;5070409;28;20365;-69
2023/07/27 11:43:19;;;;;;;7.53;6.47;;;;;;;;;;5072889;28;20470;-70
2023/07/27 11:45:44;;;;;;;9.75;6.63;;;;;;;;;;5072645;28;20039;-69
2023/07/27 11:48:09;;;;;;;7.70;7.00;;;;;;;;;;5071335;28;20037;-70
2023/07/27 11:50:37;;;;;;;7.70;6.80;;;;;;;;;;5071614;28;20052;-70
2023/07/27 11:53:07;;;;;;;7.82;7.13;;;;;;;;;;5070624;28;20036;-70
2023/07/27 11:55:36;;;;;;;7.43;6.53;;;;;;;;;;5071406;28;20017;-70
2023/07/27 11:58:04;;;;;;;7.13;6.53;;;;;;;;;;5071006;28;20056;-70
2023/07/27 12:00:29;;;;;;;10.32;6.45;;;;;;;;;;5072390;28;20056;-69
2023/07/27 12:02:54;;;;;;;7.07;6.10;;;;;;;;;;5070849;28;20075;-70
2023/07/27 12:05:21;;;;;;;6.80;6.15;;;;;;;;;;5072820;28;20024;-70
2023/07/27 12:07:47;;;;;;;7.22;6.63;;;;;;;;;;5052961;28;20071;-69
2023/07/27 12:10:13;;;;;;;11.57;8.10;;;;;;;;;;5071870;28;20060;-69
2023/07/27 12:12:53;;;;;;;8.15;7.35;;;;;;;;;;5070525;28;20036;-70
2023/07/27 12:15:28;;;;;;;10.60;6.68;;;;;;;;;;5071988;28;20031;-70
2023/07/27 12:17:55;;;;;;;12.45;6.45;;;;;;;;;;5053323;28;20113;-70
2023/07/27 12:20:20;;;;;;;7.30;6.60;;;;;;;;;;5052587;28;20364;-69
2023/07/27 12:22:45;;;;;;;9.63;8.23;;;;;;;;;;5066349;28;20123;-70
2023/07/27 12:25:10;;;;;;;10.07;7.20;;;;;;;;;;5071918;28;20587;-70
2023/07/27 12:27:35;;;;;;;7.25;6.57;;;;;;;;;;5070979;28;20396;-69
2023/07/27 12:30:01;;;;;;;6.37;5.77;;;;;;;;;;5072092;28;20027;-69
2023/07/27 12:32:26;;;;;;;6.13;5.60;;;;;;;;;;5049141;28;20583;-70
2023/07/27 12:34:51;;;;;;;8.27;7.50;;;;;;;;;;5048138;28;20459;-69
2023/07/27 12:37:16;;;;;;;6.07;5.50;;;;;;;;;;5048717;28;20396;-69
2023/07/27 12:39:41;;;;;;;8.82;7.93;;;;;;;;;;5051614;28;20013;-69
2023/07/27 12:42:06;;;;;;;8.53;7.73;;;;;;;;;;5060775;28;20399;-70
2023/07/27 12:44:32;;;;;;;9.40;6.93;;;;;;;;;;5072045;28;20963;-69
2023/07/27 12:46:57;;;;;;;8.77;5.88;;;;;;;;;;5068364;28;20071;-68
2023/07/27 12:49:22;;;;;;;10.27;8.43;;;;;;;;;;5070419;28;20020;-68
2023/07/27 12:51:47;;;;;;;8.25;7.32;;;;;;;;;;5070316;28;20457;-68
2023/07/27 12:54:12;;;;;;;12.63;6.50;;;;;;;;;;5070821;28;20499;-68
2023/07/27 12:56:38;;;;;;;12.73;6.78;;;;;;;;;;5070258;28;20053;-69
2023/07/27 12:59:03;;;;;;;6.85;6.20;;;;;;;;;;5071532;28;20051;-67
2023/07/27 13:01:28;;;;;;;11.17;7.37;;;;;;;;;;5069718;28;20483;-68
2023/07/27 13:03:54;;;;;;;7.05;5.95;;;;;;;;;;5071647;28;20031;-69
2023/07/27 13:06:19;;;;;;;7.40;6.70;;;;;;;;;;5069990;28;20578;-68
2023/07/27 13:08:44;;;;;;;8.33;7.00;;;;;;;;;;5071075;28;20030;-68
2023/07/27 13:11:09;;;;;;;6.20;5.57;;;;;;;;;;5069290;28;20093;-68
2023/07/27 13:13:34;;;;;;;5.90;5.30;;;;;;;;;;5070816;28;20028;-68
2023/07/27 13:16:00;;;;;;;8.63;6.53;;;;;;;;;;5069591;28;20464;-68
2023/07/27 13:18:25;;;;;;;6.50;5.80;;;;;;;;;;5070920;28;20020;-68
2023/07/27 13:20:50;;;;;;;7.67;6.93;;;;;;;;;;5070896;28;20051;-64
2023/07/27 13:23:15;;;;;;;8.68;5.35;;;;;;;;;;5070596;28;20392;-68
2023/07/27 13:25:40;;;;;;;5.80;5.20;;;;;;;;;;5071056;28;20026;-68
2023/07/27 13:28:06;;;;;;;7.77;5.90;;;;;;;;;;5069436;28;20450;-68
2023/07/27 13:30:31;;;;;;;7.73;5.93;;;;;;;;;;5069979;28;20032;-68
2023/07/27 13:32:56;;;;;;;6.03;5.53;;;;;;;;;;5069411;28;20037;-68
2023/07/27 13:35:21;;;;;;;6.53;5.90;;;;;;;;;;5070523;28;20451;-68
2023/07/27 13:37:46;;;;;;;5.78;5.10;;;;;;;;;;5068935;28;20372;-68
2023/07/27 13:40:11;;;;;;;6.38;5.82;;;;;;;;;;5069790;28;20020;-68
2023/07/27 13:42:37;;;;;;;7.73;5.63;;;;;;;;;;5069542;28;20032;-68
2023/07/27 13:45:02;;;;;;;5.80;5.30;;;;;;;;;;5070383;28;20104;-68
2023/07/27 13:47:28;;;;;;;5.22;4.80;;;;;;;;;;5069411;28;20093;-68
2023/07/27 13:49:53;;;;;;;6.35;5.72;;;;;;;;;;5069449;28;20486;-68
2023/07/27 13:52:20;;;;;;;5.88;5.38;;;;;;;;;;5067407;28;20032;-67
2023/07/27 13:54:45;;;;;;;6.97;5.20;;;;;;;;;;5070768;28;20077;-68
2023/07/27 13:57:10;;;;;;;9.33;7.03;;;;;;;;;;5069424;28;20124;-68
2023/07/27 13:59:35;;;;;;;6.15;4.15;;;;;;;;;;5070410;28;20429;-68
2023/07/27 14:02:00;;;;;;;5.25;4.75;;;;;;;;;;5069279;28;20033;-68
2023/07/27 14:04:26;;;;;;;6.93;6.20;;;;;;;;;;5068133;28;20063;-68
2023/07/27 14:06:51;;;;;;;5.93;5.33;;;;;;;;;;5066579;28;20037;-68
2023/07/27 14:09:16;;;;;;;5.60;4.33;;;;;;;;;;5070338;28;20435;-68
2023/07/27 14:11:41;;;;;;;5.10;4.70;;;;;;;;;;5069024;28;20052;-67
2023/07/27 14:14:06;;;;;;;4.87;4.10;;;;;;;;;;5069683;28;20496;-68
2023/07/27 14:16:31;;;;;;;5.87;5.33;;;;;;;;;;5069235;28;20056;-68
2023/07/27 14:18:57;;;;;;;5.20;4.13;;;;;;;;;;5070161;28;20017;-68
2023/07/27 14:21:22;;;;;;;5.73;5.13;;;;;;;;;;5067616;28;20041;-68
2023/07/27 14:23:48;;;;;;;10.65;5.05;;;;;;;;;;5070075;28;20059;-68
2023/07/27 14:26:13;;;;;;;6.35;5.18;;;;;;;;;;5067984;28;20438;-68